Time;durP1;ratioP1;P1;durP2;ratioP2;P2;SDS_P1;SDS_P2;PMS_P1;PMS_P2;Temp;Humidity;BMP_temperature;BMP_pressure;BME280_temperature;BME280_humidity;BME280_pressure;Samples;Min_cycle;Max_cycle;Signal;HPM_P1;HPM_P2
2022/03/02 00:00:48;;;;;;;21.67;16.33;;;9.30;53.10;;;12.54;41.37;102779.28;5053734;28;20275;-58
2022/03/02 00:03:17;;;;;;;21.93;16.30;;;9.30;53.20;;;12.52;41.23;102774.13;5053332;28;20187;-58
2022/03/02 00:05:45;;;;;;;19.70;15.73;;;9.30;53.20;;;12.54;41.21;102782.75;5053712;28;20557;-57
2022/03/02 00:08:12;;;;;;;22.13;16.43;;;9.40;53.10;;;12.54;41.31;102774.00;5052137;28;20285;-58
2022/03/02 00:10:39;;;;;;;24.27;16.33;;;9.30;53.10;;;12.52;41.34;102773.28;5053682;28;20218;-59
2022/03/02 00:13:07;;;;;;;20.13;15.80;;;9.40;53.00;;;12.51;41.28;102767.19;5053215;28;20200;-55
2022/03/02 00:15:34;;;;;;;21.33;15.47;;;9.30;52.90;;;12.48;41.34;102770.09;5053813;28;20202;-57
2022/03/02 00:18:02;;;;;;;21.43;15.70;;;9.30;53.40;;;12.47;41.03;102780.78;5053870;28;20213;-58
2022/03/02 00:20:31;;;;;;;21.13;16.07;;;9.30;53.00;;;12.45;41.47;102780.09;5053435;28;20182;-57
2022/03/02 00:22:58;;;;;;;22.37;15.80;;;9.20;53.00;;;12.44;41.68;102775.78;5052942;28;20256;-58
2022/03/02 00:25:26;;;;;;;19.80;15.67;;;9.20;53.20;;;12.42;41.23;102777.72;5053330;28;20314;-59
2022/03/02 00:27:54;;;;;;;18.97;14.47;;;9.20;53.10;;;12.38;41.36;102777.19;5053469;28;20190;-59
2022/03/02 00:30:23;;;;;;;25.33;15.53;;;9.10;53.20;;;12.36;41.41;102773.00;5053140;28;20210;-55
2022/03/02 00:32:50;;;;;;;21.37;15.97;;;9.10;53.00;;;12.32;41.08;102772.41;5052910;28;20231;-55
2022/03/02 00:35:17;;;;;;;24.43;16.80;;;9.10;53.10;;;12.30;41.90;102769.09;5053239;28;20288;-58
2022/03/02 00:37:46;;;;;;;23.30;16.60;;;9.10;53.40;;;12.29;41.70;102763.94;5053558;28;20200;-57
2022/03/02 00:40:14;;;;;;;20.53;17.67;;;9.10;53.40;;;12.27;41.38;102771.16;5052956;28;20192;-58
2022/03/02 00:42:43;;;;;;;20.37;15.83;;;9.10;53.30;;;12.26;41.79;102762.41;5051584;28;20201;-58
2022/03/02 00:45:11;;;;;;;19.83;16.03;;;9.10;53.40;;;12.26;41.67;102762.41;5052081;28;20225;-56
2022/03/02 00:47:39;;;;;;;18.80;15.07;;;9.10;53.50;;;12.26;41.43;102762.41;5051804;28;20194;-57
2022/03/02 00:50:08;;;;;;;21.27;16.13;;;9.10;53.40;;;12.24;41.90;102759.88;5052846;28;20220;-57
2022/03/02 00:52:36;;;;;;;23.87;17.30;;;9.00;53.70;;;12.23;41.74;102760.88;5052684;28;20208;-58
2022/03/02 00:55:06;;;;;;;19.67;15.80;;;9.10;53.70;;;12.24;41.60;102764.34;5052882;28;20213;-57
2022/03/02 00:57:33;;;;;;;21.77;15.80;;;9.10;53.60;;;12.25;41.27;102760.72;5051154;28;20193;-58
2022/03/02 01:00:01;;;;;;;21.53;16.50;;;9.10;53.10;;;12.23;41.19;102760.88;5052803;28;20623;-58
2022/03/02 01:02:29;;;;;;;22.03;16.23;;;9.10;53.00;;;12.22;41.60;102761.00;5034817;28;20700;-54
2022/03/02 01:04:56;;;;;;;20.17;15.00;;;9.00;53.20;;;12.18;41.34;102760.44;5051640;28;20228;-58
2022/03/02 01:07:24;;;;;;;20.53;15.30;;;9.00;53.10;;;12.13;40.92;102746.81;5053057;28;20190;-58
2022/03/02 01:09:51;;;;;;;19.97;15.60;;;8.90;53.20;;;12.10;41.38;102741.78;5052502;28;20213;-58
2022/03/02 01:12:20;;;;;;;19.67;15.80;;;8.90;53.30;;;12.08;41.61;102745.53;5050997;28;20201;-57
2022/03/02 01:14:47;;;;;;;22.87;15.67;;;8.80;53.60;;;12.03;41.63;102751.22;5052746;28;20216;-57
2022/03/02 01:17:15;;;;;;;22.40;15.77;;;8.80;53.70;;;12.01;41.78;102741.75;5052745;28;20196;-54
2022/03/02 01:19:43;;;;;;;18.23;15.10;;;8.70;53.80;;;11.98;41.48;102742.88;5052938;28;20266;-58
2022/03/02 01:22:10;;;;;;;20.07;14.47;;;8.70;53.80;;;11.94;41.20;102736.19;5052773;28;20602;-57
2022/03/02 01:24:37;;;;;;;19.70;14.60;;;8.60;53.90;;;11.89;41.32;102721.72;5052585;28;20209;-54
2022/03/02 01:27:05;;;;;;;18.93;14.27;;;8.60;54.10;;;11.84;42.13;102727.41;5052588;28;20593;-54
2022/03/02 01:29:34;;;;;;;21.93;16.73;;;8.60;54.10;;;11.81;42.12;102722.41;5041730;28;20205;-54
2022/03/02 01:32:06;;;;;;;20.23;15.57;;;8.50;54.50;;;11.77;42.26;102712.22;5032749;28;20191;-56
2022/03/02 01:34:34;;;;;;;25.40;16.87;;;8.60;54.40;;;11.77;42.26;102707.81;5032484;28;20281;-56
2022/03/02 01:37:02;;;;;;;19.50;15.67;;;8.60;54.50;;;11.75;42.60;102698.34;5032738;28;20205;-54
2022/03/02 01:39:30;;;;;;;19.40;15.30;;;8.50;54.80;;;11.76;42.56;102698.25;5032646;28;20186;-58
2022/03/02 01:41:57;;;;;;;19.07;15.00;;;8.60;54.70;;;11.77;42.83;102702.53;5032642;28;20293;-55
2022/03/02 01:44:25;;;;;;;20.03;15.00;;;8.60;54.80;;;11.78;42.58;102704.22;5034136;28;20232;-55
2022/03/02 01:46:54;;;;;;;19.97;15.33;;;8.60;54.40;;;11.76;42.05;102706.16;5052499;28;20190;-55
2022/03/02 01:49:21;;;;;;;19.27;14.43;;;8.50;54.40;;;11.73;42.39;102708.22;5052727;28;20190;-55
2022/03/02 01:51:49;;;;;;;20.73;15.63;;;8.50;54.50;;;11.69;42.75;102705.00;5052229;28;20221;-56
2022/03/02 01:54:16;;;;;;;21.23;15.43;;;8.50;54.70;;;11.68;42.61;102708.59;5052043;28;20218;-54
2022/03/02 01:56:43;;;;;;;19.90;15.80;;;8.50;54.70;;;11.68;42.65;102713.88;5052382;28;20273;-54
2022/03/02 01:59:11;;;;;;;21.20;15.57;;;8.50;54.60;;;11.67;42.52;102704.25;5052732;28;20201;-54
2022/03/02 02:01:38;;;;;;;20.77;15.60;;;8.50;54.60;;;11.65;42.44;102703.56;5044530;28;20190;-58
2022/03/02 02:04:08;;;;;;;19.00;14.30;;;8.50;54.70;;;11.62;42.87;102703.84;5035539;28;20214;-59
2022/03/02 02:06:35;;;;;;;21.50;16.07;;;8.50;54.60;;;11.62;42.82;102703.84;5039081;28;20189;-55
2022/03/02 02:09:07;;;;;;;19.13;14.53;;;8.50;54.60;;;11.63;42.53;102702.03;5038998;28;20207;-54
2022/03/02 02:11:35;;;;;;;19.77;15.00;;;8.50;54.30;;;11.62;42.15;102695.94;5039001;28;20218;-55
2022/03/02 02:14:02;;;;;;;18.20;14.70;;;8.50;54.40;;;11.64;42.11;102695.78;5038913;28;20702;-56
2022/03/02 02:16:30;;;;;;;20.20;14.30;;;8.50;54.20;;;11.63;42.41;102694.94;5041050;28;20225;-54
2022/03/02 02:18:58;;;;;;;23.63;14.67;;;8.50;54.00;;;11.60;42.31;102697.84;5039813;28;20199;-54
2022/03/02 02:21:28;;;;;;;20.00;14.07;;;8.40;54.00;;;11.58;42.10;102698.00;5041018;28;20274;-55
2022/03/02 02:23:56;;;;;;;18.73;13.77;;;8.40;54.00;;;11.57;41.77;102695.50;5059384;28;20228;-55
2022/03/02 02:26:25;;;;;;;19.33;12.87;;;8.40;53.90;;;11.54;41.64;102690.47;5059823;28;20219;-54
2022/03/02 02:28:54;;;;;;;17.03;13.53;;;8.30;53.70;;;11.54;42.37;102690.47;5059994;28;20197;-55
2022/03/02 02:31:22;;;;;;;17.47;12.87;;;8.30;54.00;;;11.52;41.95;102692.41;5073957;28;20240;-54
2022/03/02 02:33:51;;;;;;;18.57;14.77;;;8.30;53.80;;;11.51;42.44;102688.09;5052849;28;20221;-56
2022/03/02 02:36:19;;;;;;;17.03;13.73;;;8.30;54.30;;;11.52;42.52;102689.78;5037726;28;20212;-54
2022/03/02 02:38:49;;;;;;;17.00;13.37;;;8.30;54.40;;;11.52;42.30;102692.41;5035546;28;20201;-54
2022/03/02 02:41:18;;;;;;;17.80;13.47;;;8.30;54.10;;;11.52;42.28;102685.34;5036049;28;20210;-58
2022/03/02 02:43:46;;;;;;;17.97;13.87;;;8.30;54.10;;;11.54;41.63;102687.84;5035193;28;20206;-56
2022/03/02 02:46:14;;;;;;;17.83;14.00;;;8.30;53.70;;;11.50;42.17;102674.06;5036421;28;20731;-56
2022/03/02 02:48:41;;;;;;;19.13;14.23;;;8.40;54.10;;;11.49;41.96;102671.56;5035634;28;20226;-56
2022/03/02 02:51:09;;;;;;;17.73;13.63;;;8.40;54.10;;;11.48;42.32;102669.91;5050047;28;20213;-57
2022/03/02 02:53:36;;;;;;;15.47;13.47;;;8.30;53.80;;;11.46;41.85;102671.84;5054942;28;20222;-55
2022/03/02 02:56:05;;;;;;;18.27;14.27;;;8.30;53.70;;;11.40;42.35;102662.66;5055215;28;20193;-58
2022/03/02 02:58:33;;;;;;;18.77;14.77;;;8.30;54.30;;;11.34;42.37;102657.06;5055077;28;20201;-56
2022/03/02 03:01:00;;;;;;;16.93;13.03;;;8.20;54.30;;;11.30;42.32;102655.66;5054944;28;20182;-57
2022/03/02 03:03:28;;;;;;;18.27;13.77;;;8.20;54.30;;;11.27;42.59;102648.00;5054607;28;20240;-58
2022/03/02 03:05:56;;;;;;;21.03;14.70;;;8.20;54.50;;;11.24;42.72;102650.94;5053242;28;20643;-56
2022/03/02 03:08:25;;;;;;;20.00;14.93;;;8.10;54.60;;;11.21;42.69;102645.91;5054751;28;20278;-54
2022/03/02 03:10:52;;;;;;;19.23;14.67;;;8.10;54.90;;;11.20;42.96;102646.88;5055320;28;20203;-58
2022/03/02 03:13:21;;;;;;;19.00;13.67;;;8.10;54.90;;;11.15;43.45;102647.28;5054080;28;20205;-54
2022/03/02 03:15:48;;;;;;;21.50;15.67;;;8.10;55.00;;;11.11;43.42;102640.59;5053966;28;20190;-54
2022/03/02 03:18:16;;;;;;;18.80;14.17;;;8.00;55.00;;;11.06;43.33;102631.41;5054775;28;20200;-57
2022/03/02 03:20:43;;;;;;;21.10;15.07;;;8.00;55.10;;;11.01;42.86;102636.22;5054557;28;20647;-56
2022/03/02 03:23:12;;;;;;;18.00;13.47;;;8.00;54.90;;;10.96;42.99;102633.19;5052482;28;20190;-58
2022/03/02 03:25:39;;;;;;;18.70;13.80;;;7.90;54.90;;;10.92;43.62;102629.97;5053915;28;20727;-55
2022/03/02 03:28:07;;;;;;;20.30;16.00;;;7.90;55.40;;;10.91;43.79;102636.19;5054182;28;20196;-59
2022/03/02 03:30:36;;;;;;;19.93;14.13;;;7.80;55.60;;;10.91;44.01;102638.00;5054161;28;20604;-58
2022/03/02 03:33:04;;;;;;;22.57;14.50;;;7.80;55.70;;;10.89;43.74;102641.59;5052714;28;20312;-57
2022/03/02 03:35:33;;;;;;;18.80;14.57;;;7.80;55.70;;;10.89;43.66;102646.84;5054403;28;20218;-58
2022/03/02 03:38:00;;;;;;;18.03;13.83;;;7.80;55.70;;;10.92;43.88;102634.38;5054414;28;20186;-58
2022/03/02 03:40:28;;;;;;;21.53;15.70;;;7.80;55.80;;;10.94;43.97;102649.09;5052670;28;20198;-57
2022/03/02 03:42:57;;;;;;;19.57;14.53;;;7.80;55.70;;;10.93;43.61;102641.34;5053997;28;20193;-57
2022/03/02 03:45:24;;;;;;;20.50;14.53;;;7.80;55.50;;;10.92;43.73;102639.66;5054426;28;20210;-54
2022/03/02 03:47:53;;;;;;;20.63;15.83;;;7.80;55.90;;;10.93;43.95;102654.50;5054468;28;20204;-58
2022/03/02 03:50:21;;;;;;;18.40;13.77;;;7.80;56.00;;;10.93;43.85;102647.44;5054156;28;20570;-59
2022/03/02 03:52:49;;;;;;;19.37;15.00;;;7.80;55.90;;;10.94;43.75;102646.47;5053707;28;20201;-56
2022/03/02 03:55:16;;;;;;;21.40;15.97;;;7.80;55.80;;;10.92;43.71;102639.66;5047317;28;20210;-56
2022/03/02 03:57:44;;;;;;;20.73;15.57;;;7.80;55.70;;;10.88;43.72;102634.66;5033776;28;20194;-59
2022/03/02 04:00:15;;;;;;;18.83;15.20;;;7.80;55.70;;;10.84;43.48;102635.88;5032714;28;20194;-57
2022/03/02 04:02:44;;;;;;;22.23;15.30;;;7.80;55.70;;;10.81;43.93;102628.25;5033554;28;20186;-55
2022/03/02 04:05:14;;;;;;;22.33;14.57;;;7.80;55.40;;;10.77;43.61;102620.69;5033656;28;20217;-58
2022/03/02 04:07:45;;;;;;;21.43;15.37;;;7.70;55.80;;;10.71;43.55;102622.06;5033774;28;20245;-58
2022/03/02 04:10:14;;;;;;;21.40;15.07;;;7.70;55.70;;;10.68;43.85;102627.59;5033715;28;20221;-57
2022/03/02 04:12:42;;;;;;;21.23;16.67;;;7.70;55.70;;;10.66;43.64;102629.53;5034562;28;20219;-58
2022/03/02 04:15:10;;;;;;;24.67;15.07;;;7.60;55.80;;;10.65;44.18;102627.03;5033530;28;20220;-57
2022/03/02 04:17:38;;;;;;;18.43;14.73;;;7.60;56.10;;;10.63;44.08;102627.13;5033487;28;20191;-57
2022/03/02 04:20:08;;;;;;;19.87;14.97;;;7.60;55.90;;;10.58;44.20;102626.69;5033851;28;20187;-58
2022/03/02 04:22:37;;;;;;;20.90;14.87;;;7.60;56.40;;;10.57;44.28;102630.28;5040348;28;20228;-58
2022/03/02 04:25:06;;;;;;;21.33;14.87;;;7.60;56.10;;;10.57;44.55;102630.28;5053039;28;20218;-55
2022/03/02 04:27:33;;;;;;;21.87;15.57;;;7.60;56.30;;;10.54;44.15;102630.53;5051917;28;20205;-57
2022/03/02 04:30:01;;;;;;;21.80;16.47;;;7.60;56.20;;;10.50;44.25;102626.50;5053415;28;20197;-55
2022/03/02 04:32:29;;;;;;;21.20;15.47;;;7.50;56.20;;;10.44;44.93;102628.78;5052936;28;20213;-57
2022/03/02 04:34:56;;;;;;;17.67;13.77;;;7.50;56.30;;;10.43;44.81;102630.59;5053134;28;20220;-58
2022/03/02 04:37:23;;;;;;;20.90;16.00;;;7.50;56.40;;;10.40;44.94;102620.31;5051811;28;20193;-56
2022/03/02 04:39:52;;;;;;;19.57;14.77;;;7.50;56.50;;;10.38;45.03;102613.50;5053397;28;20523;-58
2022/03/02 04:42:19;;;;;;;18.47;14.93;;;7.50;56.50;;;10.35;44.91;102609.34;5051768;28;20734;-57
2022/03/02 04:44:46;;;;;;;17.77;14.90;;;7.40;55.90;;;10.33;44.65;102611.25;5052146;28;20315;-58
2022/03/02 04:47:14;;;;;;;20.13;13.90;;;7.40;56.00;;;10.29;44.46;102601.97;5052972;28;20225;-58
2022/03/02 04:49:42;;;;;;;20.20;14.73;;;7.30;56.20;;;10.26;44.72;102599.56;5051677;28;20289;-58
2022/03/02 04:52:09;;;;;;;19.97;13.83;;;7.20;56.20;;;10.22;44.72;102595.53;5052838;28;20219;-57
2022/03/02 04:57:23;;;;;;;22.27;15.20;;;7.10;56.60;;;10.11;44.80;102591.13;5052903;28;20197;-57
2022/03/02 04:59:51;;;;;;;20.07;14.43;;;7.10;56.90;;;10.09;45.03;102592.19;5052181;28;20577;-58
2022/03/02 05:02:18;;;;;;;21.37;14.70;;;7.00;57.30;;;10.07;45.34;102600.22;5052773;28;20530;-55
2022/03/02 05:04:45;;;;;;;19.47;14.53;;;7.10;57.50;;;10.09;45.89;102592.19;5052511;28;20244;-58
2022/03/02 05:07:13;;;;;;;20.00;14.93;;;7.10;57.60;;;10.12;45.67;102586.72;5053063;28;20221;-58
2022/03/02 05:09:41;;;;;;;20.13;15.77;;;7.10;57.30;;;10.13;45.42;102588.38;5052523;28;20205;-57
2022/03/02 05:12:09;;;;;;;22.67;15.70;;;7.20;57.00;;;10.12;44.86;102586.72;5052741;28;20224;-56
2022/03/02 05:14:37;;;;;;;18.43;14.90;;;7.10;56.80;;;10.09;44.84;102593.03;5052704;28;20574;-57
2022/03/02 05:17:05;;;;;;;21.53;14.30;;;7.10;56.60;;;10.02;44.73;102583.13;5051209;28;20193;-58
2022/03/02 05:19:33;;;;;;;20.57;15.30;;;7.00;56.70;;;9.97;45.24;102587.94;5052644;28;20193;-56
2022/03/02 05:22:00;;;;;;;20.67;15.10;;;7.00;57.00;;;9.90;45.66;102592.03;5052581;28;20189;-58
2022/03/02 05:24:28;;;;;;;19.80;14.60;;;6.90;57.70;;;9.86;46.19;102595.88;5052438;28;20213;-59
2022/03/02 05:26:55;;;;;;;18.30;15.23;;;6.90;58.10;;;9.82;45.85;102589.16;5052675;28;20205;-58
2022/03/02 05:29:22;;;;;;;18.93;15.43;;;6.80;57.70;;;9.77;45.98;102575.56;5052516;28;20200;-58
2022/03/02 05:31:51;;;;;;;19.30;15.00;;;6.80;57.90;;;9.74;46.06;102586.34;5052682;28;20222;-56
2022/03/02 05:34:18;;;;;;;20.90;15.20;;;6.80;57.70;;;9.70;45.91;102592.81;5050697;28;20709;-56
2022/03/02 05:36:46;;;;;;;25.03;17.10;;;6.70;57.60;;;9.65;45.94;102592.34;5052617;28;20190;-57
2022/03/02 05:39:13;;;;;;;20.33;15.67;;;6.70;58.10;;;9.62;46.46;102592.56;5056206;28;20662;-58
2022/03/02 05:41:41;;;;;;;24.10;15.87;;;6.60;58.00;;;9.59;46.13;102593.66;5056124;28;20530;-59
2022/03/02 05:44:08;;;;;;;20.40;14.53;;;6.60;58.50;;;9.56;46.48;102588.63;5055875;28;20310;-59
2022/03/02 05:46:36;;;;;;;20.50;16.00;;;6.60;58.20;;;9.52;46.50;102588.06;5056378;28;20219;-57
2022/03/02 05:49:08;;;;;;;22.33;15.53;;;6.50;58.40;;;9.49;46.39;102588.28;5056224;28;20569;-58
2022/03/02 05:51:36;;;;;;;20.20;15.63;;;6.50;58.60;;;9.45;46.42;102589.50;5037636;28;20289;-55
2022/03/02 05:54:05;;;;;;;22.73;14.87;;;6.50;58.60;;;9.44;47.08;102587.81;5054822;28;20215;-59
2022/03/02 05:56:33;;;;;;;19.90;13.77;;;6.50;59.20;;;9.44;46.73;102589.59;5056134;28;20219;-57
2022/03/02 05:59:00;;;;;;;23.80;15.83;;;6.50;58.90;;;9.42;46.61;102587.09;5056301;28;20200;-59
2022/03/02 06:01:27;;;;;;;20.97;15.47;;;6.50;59.20;;;9.41;46.80;102590.66;5056323;28;20536;-58
2022/03/02 06:03:55;;;;;;;21.63;15.53;;;6.40;58.90;;;9.38;46.48;102584.84;5055423;28;20217;-59
2022/03/02 06:06:41;;;;;;;22.23;15.57;;;6.40;58.60;;;9.33;46.59;102579.09;5047040;28;20223;-57
2022/03/02 06:09:10;;;;;;;24.30;15.20;;;6.30;58.50;;;9.27;47.03;102580.41;5034955;28;20673;-56
2022/03/02 06:11:39;;;;;;;19.83;14.40;;;6.30;58.70;;;9.24;46.85;102583.31;5035665;28;20214;-59
2022/03/02 06:14:07;;;;;;;20.40;15.87;;;6.20;58.90;;;9.23;47.32;102591.28;5035346;28;20214;-58
2022/03/02 06:16:41;;;;;;;24.93;16.93;;;6.20;59.50;;;9.21;47.63;102599.31;5036006;28;20183;-59
2022/03/02 06:19:09;;;;;;;21.83;16.23;;;6.20;59.90;;;9.21;47.64;102599.31;5035796;28;20608;-59
2022/03/02 06:21:43;;;;;;;24.80;15.83;;;6.30;59.90;;;9.22;47.28;102608.03;5036058;28;20653;-59
2022/03/02 06:24:14;;;;;;;25.27;16.40;;;6.30;59.30;;;9.20;47.30;102608.13;5034779;28;20289;-57
2022/03/02 06:26:42;;;;;;;20.80;15.00;;;6.20;59.40;;;9.22;47.21;102619.34;5035495;28;20206;-57
2022/03/02 06:29:09;;;;;;;20.03;14.37;;;6.20;59.30;;;9.22;47.15;102629.84;5067292;28;20279;-56
2022/03/02 06:31:37;;;;;;;21.00;14.87;;;6.20;59.40;;;9.20;47.18;102623.06;5035168;28;20294;-57
2022/03/02 06:34:05;;;;;;;19.83;15.63;;;6.20;59.80;;;9.21;47.68;102622.94;5034929;28;20210;-58
2022/03/02 06:36:32;;;;;;;20.73;15.47;;;6.20;60.00;;;9.22;47.54;102616.72;5035189;28;20274;-59
2022/03/02 06:39:21;;;;;;;21.23;16.13;;;6.20;59.80;;;9.22;47.59;102621.97;5038556;28;20198;-59
2022/03/02 06:42:04;;;;;;;24.27;16.33;;;6.30;60.10;;;9.27;47.55;102622.44;5055120;28;20194;-55
2022/03/02 06:44:42;;;;;;;31.97;21.67;;;6.30;59.90;;;9.32;47.44;102622.94;5054821;28;20217;-59
2022/03/02 06:47:13;;;;;;;26.93;18.47;;;6.40;59.90;;;9.37;46.71;102618.16;5054649;28;20569;-58
2022/03/02 06:49:59;;;;;;;27.33;17.33;;;6.40;59.20;;;9.34;47.14;102615.75;5054707;28;20187;-57
2022/03/02 06:52:33;;;;;;;25.33;17.37;;;6.50;59.00;;;9.36;46.96;102620.91;5054553;28;20213;-57
2022/03/02 06:55:06;;;;;;;26.23;17.20;;;6.40;59.00;;;9.34;46.56;102631.53;5054799;28;20284;-59
2022/03/02 06:57:35;;;;;;;25.00;17.13;;;6.40;59.00;;;9.34;47.15;102630.72;5055609;28;20278;-60
2022/03/02 07:00:13;;;;;;;25.03;16.80;;;6.40;59.30;;;9.37;47.10;102635.72;5054911;28;20198;-59
2022/03/02 07:02:47;;;;;;;20.63;15.23;;;6.40;59.20;;;9.37;47.09;102633.94;5054730;28;20265;-57
2022/03/02 07:05:17;;;;;;;23.60;15.60;;;6.40;59.30;;;9.40;46.38;102636.31;5054017;28;20213;-59
2022/03/02 07:07:48;;;;;;;21.33;14.93;;;6.40;59.30;;;9.45;47.16;102628.91;5054394;28;20555;-54
2022/03/02 07:10:16;;;;;;;23.10;15.50;;;6.40;59.20;;;9.53;46.98;102623.88;5054988;28;20224;-58
2022/03/02 07:12:44;;;;;;;22.70;15.97;;;6.50;59.40;;;9.60;46.30;102615.53;5038284;28;20691;-57
2022/03/02 07:15:12;;;;;;;24.97;15.27;;;6.50;59.30;;;9.68;46.69;102620.97;5034410;28;20591;-57
2022/03/02 07:17:40;;;;;;;21.03;15.43;;;6.50;59.40;;;9.77;46.50;102620.28;5034934;28;20186;-58
2022/03/02 07:20:11;;;;;;;22.20;17.17;;;6.60;59.40;;;9.88;46.69;102625.50;5034737;28;20182;-56
2022/03/02 07:22:47;;;;;;;20.67;15.20;;;6.70;59.20;;;10.00;46.53;102624.50;5041565;28;20571;-60
2022/03/02 07:25:24;;;;;;;19.07;14.33;;;6.80;59.10;;;10.16;46.16;102620.53;5054497;28;20212;-58
2022/03/02 07:27:55;;;;;;;23.80;16.27;;;7.00;59.00;;;10.39;46.23;102623.91;5048131;28;20194;-56
2022/03/02 07:30:23;;;;;;;25.73;17.93;;;7.20;58.80;;;10.64;45.58;102620.91;5034008;28;20273;-59
2022/03/02 07:32:55;;;;;;;18.53;15.73;;;7.40;58.50;;;10.81;45.26;102625.63;5033754;28;20222;-58
2022/03/02 07:35:25;;;;;;;21.93;15.30;;;7.60;58.10;;;10.95;44.48;102631.50;5033831;28;20723;-57
2022/03/02 07:37:55;;;;;;;21.33;15.47;;;7.70;57.30;;;11.09;44.14;102631.16;5033855;28;20194;-58
2022/03/02 07:40:24;;;;;;;21.17;16.27;;;7.90;57.10;;;11.32;44.29;102635.28;5033880;28;20191;-57
2022/03/02 07:42:51;;;;;;;19.87;15.53;;;8.10;56.30;;;11.59;43.45;102646.09;5033761;28;20187;-60
2022/03/02 07:45:19;;;;;;;20.67;16.33;;;8.20;55.60;;;11.86;42.69;102648.94;5050072;28;20214;-58
2022/03/02 07:47:48;;;;;;;17.03;13.50;;;8.40;54.90;;;12.14;42.83;102647.34;5054223;28;20258;-58
2022/03/02 07:50:16;;;;;;;21.43;15.50;;;8.60;54.90;;;12.43;41.98;102648.16;5054212;28;20197;-58
2022/03/02 07:52:48;;;;;;;20.03;16.17;;;8.80;54.30;;;12.77;41.49;102645.91;5052628;28;20260;-59
2022/03/02 07:55:17;;;;;;;21.30;15.50;;;9.10;54.50;;;13.03;41.17;102646.13;5052753;28;20209;-58
2022/03/02 07:57:53;;;;;;;21.17;16.63;;;9.40;54.10;;;13.31;40.58;102640.78;5053033;28;20212;-56
2022/03/02 08:00:22;;;;;;;20.17;15.67;;;9.60;53.00;;;13.61;39.89;102630.91;5050882;28;20197;-59
2022/03/02 08:02:58;;;;;;;21.67;16.00;;;9.90;52.70;;;13.84;39.51;102632.16;5053311;28;20209;-57
2022/03/02 08:05:26;;;;;;;19.23;15.03;;;10.20;51.40;;;13.95;38.90;102629.31;5053588;28;20232;-59
2022/03/02 08:07:54;;;;;;;29.87;18.87;;;10.40;50.50;;;14.07;38.60;102625.47;5053495;28;20551;-59
2022/03/02 08:10:22;;;;;;;24.63;19.97;;;10.60;49.70;;;14.18;38.15;102628.72;5053293;28;20197;-57
2022/03/02 08:12:51;;;;;;;18.30;15.27;;;10.60;49.20;;;14.26;37.81;102618.19;5052888;28;20721;-57
2022/03/02 08:15:20;;;;;;;22.07;15.90;;;10.70;48.50;;;14.26;37.45;102604.94;5053555;28;20210;-58
2022/03/02 08:17:48;;;;;;;20.63;16.67;;;10.80;48.10;;;14.32;37.47;102610.66;5040257;28;20197;-57
2022/03/02 08:20:16;;;;;;;20.10;17.20;;;10.80;48.00;;;14.48;37.36;102608.97;5050466;28;20254;-58
2022/03/02 08:22:45;;;;;;;29.57;22.00;;;10.90;48.00;;;14.78;36.55;102613.84;5053127;28;20193;-58
2022/03/02 08:25:14;;;;;;;21.00;17.70;;;11.00;47.50;;;15.24;36.21;102619.72;5053273;28;20626;-59
2022/03/02 08:27:57;;;;;;;20.83;16.73;;;11.30;47.70;;;15.59;35.31;102616.94;5052740;28;20555;-58
2022/03/02 08:30:30;;;;;;;22.53;14.30;;;11.50;46.70;;;15.87;34.72;102618.34;5052724;28;20220;-56
2022/03/02 08:33:00;;;;;;;18.13;14.00;;;11.80;45.80;;;16.14;34.17;102617.22;5048199;28;20681;-59
2022/03/02 08:35:34;;;;;;;17.37;14.87;;;12.10;45.20;;;16.44;33.68;102616.56;5033070;28;20245;-57
2022/03/02 08:38:02;;;;;;;17.23;13.73;;;12.40;44.60;;;16.71;33.65;102613.56;5033162;28;20300;-57
2022/03/02 08:40:30;;;;;;;16.53;13.67;;;12.60;44.20;;;16.93;33.02;102617.34;5033784;28;20260;-58
2022/03/02 08:43:01;;;;;;;20.70;16.53;;;12.90;43.70;;;17.13;32.66;102618.66;5034669;28;20193;-56
2022/03/02 08:45:29;;;;;;;17.83;14.47;;;13.10;42.80;;;17.36;32.08;102616.91;5043768;28;20555;-56
2022/03/02 08:48:00;;;;;;;15.50;13.90;;;13.20;42.10;;;17.68;31.16;102617.78;5031141;28;20195;-57
2022/03/02 08:50:27;;;;;;;17.97;13.87;;;13.50;41.10;;;18.09;30.73;102624.53;5042546;28;20277;-58
2022/03/02 08:52:56;;;;;;;17.27;12.67;;;13.70;40.70;;;18.56;30.14;102630.50;5049913;28;20686;-57
2022/03/02 08:55:29;;;;;;;21.97;16.17;;;14.00;40.40;;;19.08;29.62;102625.16;5043983;28;20576;-59
2022/03/02 08:58:00;;;;;;;19.00;14.33;;;14.40;39.80;;;19.66;28.86;102624.28;5030700;28;20289;-57
2022/03/02 09:00:28;;;;;;;16.20;14.17;;;14.80;38.30;;;20.19;27.93;102623.84;5045794;28;20290;-59
2022/03/02 09:02:56;;;;;;;16.90;15.07;;;15.20;37.90;;;20.83;27.19;102629.13;5035520;28;20231;-58
2022/03/02 09:05:27;;;;;;;15.63;14.03;;;15.70;37.80;;;21.50;26.25;102621.28;5040741;28;20221;-60
2022/03/02 09:07:57;;;;;;;14.97;12.43;;;16.20;36.90;;;22.12;25.42;102626.44;5038744;28;20202;-57
2022/03/02 09:10:25;;;;;;;17.07;13.97;;;16.70;35.50;;;22.59;24.79;102626.25;5037277;28;20225;-59
2022/03/02 09:12:55;;;;;;;15.33;13.37;;;17.10;33.80;;;22.98;23.86;102632.66;5041880;28;20676;-59
2022/03/02 09:15:24;;;;;;;17.47;15.60;;;17.60;33.30;;;23.45;23.07;102624.25;5042512;28;20225;-59
2022/03/02 09:17:52;;;;;;;17.67;15.20;;;17.90;31.20;;;23.92;22.78;102626.50;5042825;28;20262;-60
2022/03/02 09:20:19;;;;;;;20.20;15.20;;;18.30;31.60;;;24.34;22.19;102613.41;5044735;28;20205;-59
2022/03/02 09:22:48;;;;;;;15.77;13.57;;;18.70;30.00;;;24.63;21.90;102613.53;5047710;28;20225;-59
2022/03/02 09:25:15;;;;;;;20.77;18.53;;;19.10;29.60;;;24.97;21.29;102614.91;5039353;28;20224;-59
2022/03/02 09:27:46;;;;;;;14.10;12.60;;;19.40;28.60;;;25.32;20.58;102612.41;5037088;28;20632;-58
2022/03/02 09:30:13;;;;;;;20.03;17.87;;;19.70;28.20;;;25.60;20.15;102614.59;5047097;28;20272;-59
2022/03/02 09:32:44;;;;;;;17.10;15.30;;;19.90;26.80;;;25.92;19.01;102618.69;5036351;28;20224;-58
2022/03/02 09:35:14;;;;;;;15.63;13.93;;;20.20;26.90;;;26.17;19.12;102616.69;5047082;28;20221;-58
2022/03/02 09:37:49;;;;;;;20.57;16.80;;;20.40;26.50;;;26.42;19.07;102613.78;5042607;28;20216;-60
2022/03/02 09:40:27;;;;;;;13.07;11.70;;;20.70;26.50;;;26.71;18.60;102613.69;5041928;28;22030;-59
2022/03/02 09:42:58;;;;;;;13.70;12.23;;;20.90;25.90;;;26.94;18.71;102603.91;5038020;28;20198;-60
2022/03/02 09:45:30;;;;;;;13.47;12.07;;;21.10;25.70;;;27.20;18.63;102597.97;5038917;28;20217;-59
2022/03/02 09:51:08;;;;;;;16.83;13.83;;;21.70;25.90;;;27.89;17.75;102592.31;5040968;28;20204;-59
2022/03/02 09:53:36;;;;;;;14.57;13.07;;;22.00;25.10;;;28.22;17.26;102588.81;5039546;28;20669;-59
2022/03/02 09:56:06;;;;;;;15.20;13.63;;;22.20;24.70;;;28.52;16.79;102585.78;5040009;28;20632;-59
2022/03/02 09:58:39;;;;;;;14.77;13.10;;;22.50;24.10;;;28.79;15.85;102578.59;5041634;28;21747;-57
2022/03/02 10:01:17;;;;;;;14.20;12.17;;;22.70;23.20;;;29.04;16.34;102578.94;5038995;28;20281;-58
2022/03/02 10:03:48;;;;;;;13.93;12.53;;;22.90;23.60;;;29.32;15.99;102570.63;5040632;28;20232;-58
2022/03/02 10:06:22;;;;;;;13.20;11.90;;;23.10;23.00;;;29.50;15.62;102578.41;5040038;28;20228;-57
2022/03/02 10:08:52;;;;;;;14.40;12.30;;;23.40;22.50;;;29.69;15.04;102578.06;5038727;28;20202;-61
2022/03/02 10:11:23;;;;;;;15.87;14.13;;;23.60;22.10;;;29.90;15.32;102574.50;5041562;28;20641;-61
2022/03/02 10:13:51;;;;;;;15.87;14.03;;;23.70;22.10;;;30.02;14.86;102573.22;5037660;28;20309;-58
2022/03/02 10:16:22;;;;;;;15.83;13.37;;;23.90;22.00;;;30.16;15.01;102573.63;5037967;28;20194;-59
2022/03/02 10:18:56;;;;;;;14.20;12.77;;;24.00;21.70;;;30.32;15.19;102578.06;5039824;28;20193;-58